Time;durP1;ratioP1;P1;durP2;ratioP2;P2;SDS_P1;SDS_P2;PMS_P1;PMS_P2;Temp;Humidity;BMP_temperature;BMP_pressure;BME280_temperature;BME280_humidity;BME280_pressure;Samples;Min_cycle;Max_cycle;Signal;HPM_P1;HPM_P2
2023/10/29 00:00:14;;;;;;;;;;;;;;;6.97;100.00;97947.75;4954526;28;20277;-84
2023/10/29 00:02:40;;;;;;;;;;;;;;;6.83;100.00;97936.25;4979392;28;19918;-87
2023/10/29 00:05:06;;;;;;;;;;;;;;;6.83;100.00;97930.09;4963705;28;20378;-86
2023/10/29 00:07:31;;;;;;;;;;;;;;;6.90;100.00;97919.13;4964600;28;19925;-85
2023/10/29 00:09:56;;;;;;;;;;;;;;;6.81;100.00;97896.00;4964911;28;19978;-82
2023/10/29 00:12:21;;;;;;;;;;;;;;;6.73;100.00;97892.94;4970270;28;19930;-85
2023/10/29 00:14:47;;;;;;;;;;;;;;;6.86;100.00;97888.69;4962484;28;19926;-86
2023/10/29 00:17:12;;;;;;;;;;;;;;;6.81;100.00;97879.34;4966163;28;19918;-82
2023/10/29 00:19:37;;;;;;;;;;;;;;;6.69;100.00;97880.91;4964325;28;19922;-85
2023/10/29 00:22:03;;;;;;;;;;;;;;;6.65;100.00;97868.84;4962303;28;19923;-83
2023/10/29 00:24:28;;;;;;;;;;;;;;;6.50;100.00;97854.78;4962275;28;19949;-83
2023/10/29 00:26:53;;;;;;;;;;;;;;;6.47;100.00;97845.28;4961665;28;20013;-84
2023/10/29 08:48:34;;;;;;;;;;;;;;;7.72;100.00;97990.81;5589884;23;19925;-85
2023/10/29 08:50:59;;;;;;;;;;;;;;;7.88;100.00;97995.13;5042112;28;20380;-89
2023/10/29 08:53:24;;;;;;;;;;;;;;;7.94;100.00;97994.78;5040934;28;19912;-87
2023/10/29 08:55:51;;;;;;;;;;;;;;;8.01;100.00;98006.66;5049010;28;19916;-84
2023/10/29 08:58:20;;;;;;;;;;;;;;;8.07;100.00;98010.69;5051322;28;20380;-84
2023/10/29 09:00:46;;;;;;;;;;;;;;;8.14;100.00;98004.13;5060248;22;19928;-84
2023/10/29 09:03:15;;;;;;;;;;;;;;;8.16;100.00;98003.06;5053453;28;19921;-84
2023/10/29 09:05:40;;;;;;;;;;;;;;;8.24;100.00;98001.75;5037121;28;19952;-84
2023/10/29 09:08:08;;;;;;;;;;;;;;;8.29;100.00;98007.59;5039154;28;19924;-84
2023/10/29 09:10:36;;;;;;;;;;;;;;;8.34;100.00;98016.94;5042590;28;19913;-84
2023/10/29 09:13:01;;;;;;;;;;;;;;;8.39;100.00;98016.63;5040963;28;19928;-84
2023/10/29 09:15:27;;;;;;;;;;;;;;;8.43;100.00;98020.81;5031680;28;19913;-88
2023/10/29 09:17:52;;;;;;;;;;;;;;;8.45;100.00;98011.00;5039083;28;19920;-84
2023/10/29 09:20:19;;;;;;;;;;;;;;;8.52;100.00;98009.69;5040992;28;19939;-86
2023/10/29 09:22:47;;;;;;;;;;;;;;;8.58;100.00;98010.25;5044544;28;19904;-85
2023/10/29 09:25:12;;;;;;;;;;;;;;;8.62;100.00;98003.84;5043058;28;19928;-85
2023/10/29 09:27:37;;;;;;;;;;;;;;;8.65;100.00;98003.66;5036914;22;19925;-88
2023/10/29 09:30:03;;;;;;;;;;;;;;;8.64;100.00;97991.38;5009240;28;19921;-91
2023/10/29 09:32:28;;;;;;;;;;;;;;;8.64;100.00;98008.06;5009397;28;19917;-89
2023/10/29 09:34:54;;;;;;;;;;;;;;;8.67;100.00;98012.31;5004099;28;19928;-87
2023/10/29 09:37:21;;;;;;;;;;;;;;;8.70;100.00;98009.47;5005243;28;19921;-89
2023/10/29 09:39:46;;;;;;;;;;;;;;;8.73;100.00;98009.28;5005132;28;19921;-87
2023/10/29 09:42:15;;;;;;;;;;;;;;;8.77;100.00;98008.13;5004331;28;20502;-85
2023/10/29 09:44:44;;;;;;;;;;;;;;;8.80;100.00;98034.34;5005511;28;20284;-85
2023/10/29 09:47:14;;;;;;;;;;;;;;;8.84;100.00;98034.97;5021709;28;20292;-87
2023/10/29 09:49:39;;;;;;;;;;;;;;;8.83;100.00;98036.78;5022258;28;20284;-87
2023/10/29 09:52:05;;;;;;;;;;;;;;;8.84;100.00;98035.84;5025574;28;19917;-91
2023/10/29 09:54:30;;;;;;;;;;;;;;;8.87;100.00;98030.38;5022436;28;19929;-90
2023/10/29 09:56:55;;;;;;;;;;;;;;;8.88;100.00;98034.69;5023575;28;19924;-92
2023/10/29 09:59:21;;;;;;;;;;;;;;;8.93;100.00;98029.13;5023097;28;20273;-85
2023/10/29 10:01:46;;;;;;;;;;;;;;;8.70;100.00;98014.75;5021909;28;19972;-85
2023/10/29 10:04:11;;;;;;;;;;;;;;;7.88;100.00;98013.59;5021114;28;19925;-85
2023/10/29 10:06:38;;;;;;;;;;;;;;;7.68;100.00;98020.06;5022343;28;19917;-85
2023/10/29 10:09:03;;;;;;;;;;;;;;;7.51;100.00;98018.41;5023108;28;19921;-94
2023/10/29 10:11:29;;;;;;;;;;;;;;;7.46;100.00;98019.53;5026466;28;19941;-87
2023/10/29 10:13:54;;;;;;;;;;;;;;;7.31;100.00;98030.97;5028933;28;19971;-91
2023/10/29 10:16:20;;;;;;;;;;;;;;;7.34;100.00;98014.13;5027667;28;19953;-87
2023/10/29 10:18:48;;;;;;;;;;;;;;;7.23;100.00;98022.66;5007446;28;19921;-86
2023/10/29 10:21:13;;;;;;;;;;;;;;;7.24;100.00;98011.16;5029785;28;20296;-90
2023/10/29 10:23:46;;;;;;;;;;;;;;;7.19;100.00;98026.38;5008538;28;19917;-89
2023/10/29 10:26:13;;;;;;;;;;;;;;;7.08;100.00;98014.69;5025765;28;19917;-89
2023/10/29 10:28:51;;;;;;;;;;;;;;;7.07;100.00;98007.72;5025318;28;19944;-86
2023/10/29 10:31:16;;;;;;;;;;;;;;;6.89;100.00;98012.25;5024513;28;19922;-85
2023/10/29 10:33:42;;;;;;;;;;;;;;;7.02;100.00;98007.13;5022260;28;20327;-85
2023/10/29 10:36:07;;;;;;;;;;;;;;;6.91;100.00;98020.91;5006834;28;19918;-89
2023/10/29 10:38:33;;;;;;;;;;;;;;;6.78;100.00;98037.47;5021885;28;19913;-86
2023/10/29 10:40:59;;;;;;;;;;;;;;;6.88;100.00;98028.97;5023205;28;20419;-89
2023/10/29 13:50:05;;;;;;;;;;;;;;;6.25;100.00;97890.34;4946907;28;19989;-84
2023/10/29 13:52:30;;;;;;;;;;;;;;;6.26;100.00;97899.09;4955048;28;19930;-85
2023/10/29 13:54:56;;;;;;;;;;;;;;;6.24;100.00;97906.22;4956881;28;19929;-84
2023/10/29 13:57:21;;;;;;;;;;;;;;;6.14;100.00;97911.13;4956589;28;19965;-91
2023/10/29 13:59:46;;;;;;;;;;;;;;;6.32;100.00;97914.56;4956349;28;19945;-87
2023/10/29 14:02:14;;;;;;;;;;;;;;;6.17;100.00;97916.22;4956852;28;20365;-91
2023/10/29 14:04:39;;;;;;;;;;;;;;;6.43;100.00;97895.53;4939652;29;19934;-88
2023/10/29 14:07:04;;;;;;;;;;;;;;;6.18;100.00;97897.72;4956206;29;19919;-88
2023/10/29 14:09:30;;;;;;;;;;;;;;;6.17;100.00;97887.31;4955947;29;20337;-87
2023/10/29 14:11:55;;;;;;;;;;;;;;;6.26;100.00;97893.84;4955510;29;19918;-92
2023/10/29 14:14:23;;;;;;;;;;;;;;;6.21;100.00;97907.25;4954929;28;19926;-88
2023/10/29 14:16:48;;;;;;;;;;;;;;;6.26;100.00;97923.63;4955209;28;19922;-88
2023/10/29 14:19:14;;;;;;;;;;;;;;;6.30;100.00;97922.53;4956276;28;20382;-87
2023/10/29 14:21:39;;;;;;;;;;;;;;;6.25;100.00;97929.81;4939894;29;20334;-86
2023/10/29 14:24:07;;;;;;;;;;;;;;;6.20;100.00;97941.53;4954977;28;20417;-87
2023/10/29 14:26:33;;;;;;;;;;;;;;;6.19;100.00;97951.19;4937226;29;20409;-88
2023/10/29 14:28:59;;;;;;;;;;;;;;;6.27;100.00;97938.47;4955802;29;19919;-84
2023/10/29 14:31:24;;;;;;;;;;;;;;;6.17;100.00;97934.63;4938513;28;19927;-87
2023/10/29 14:33:50;;;;;;;;;;;;;;;6.18;100.00;97928.44;4954202;29;19919;-94
2023/10/29 14:36:17;;;;;;;;;;;;;;;6.32;100.00;97954.84;4956619;28;20139;-86
2023/10/29 14:38:48;;;;;;;;;;;;;;;6.18;100.00;97970.53;4955862;28;19923;-90
2023/10/29 14:41:19;;;;;;;;;;;;;;;6.19;100.00;97985.38;4955684;28;19930;-86
2023/10/29 14:43:44;;;;;;;;;;;;;;;6.05;100.00;97982.63;4955323;28;20362;-87
2023/10/29 14:46:12;;;;;;;;;;;;;;;6.28;100.00;97997.19;4938979;29;19929;-86
2023/10/29 14:48:37;;;;;;;;;;;;;;;6.17;100.00;98003.00;4937914;29;19965;-86
2023/10/29 14:51:04;;;;;;;;;;;;;;;6.16;100.00;97998.69;4938449;29;20029;-85
2023/10/29 14:53:29;;;;;;;;;;;;;;;6.16;100.00;97952.19;4953598;28;19969;-83
2023/10/29 14:55:54;;;;;;;;;;;;;;;6.09;100.00;97976.28;4939669;29;20282;-87
2023/10/29 14:58:20;;;;;;;;;;;;;;;6.17;100.00;97982.84;4955799;28;19922;-87
2023/10/29 15:00:45;;;;;;;;;;;;;;;6.17;100.00;97979.34;4938301;29;19927;-83
2023/10/29 15:03:10;;;;;;;;;;;;;;;6.14;100.00;97972.50;4937429;29;19919;-86
2023/10/29 15:05:36;;;;;;;;;;;;;;;6.21;100.00;97966.88;4970103;28;20029;-84
2023/10/29 15:08:01;;;;;;;;;;;;;;;6.29;100.00;97976.06;4954003;28;19923;-84
2023/10/29 15:10:27;;;;;;;;;;;;;;;6.24;100.00;97993.00;4954075;28;19923;-86
2023/10/29 15:12:52;;;;;;;;;;;;;;;6.26;100.00;98013.03;4955441;29;20011;-82
2023/10/29 15:15:17;;;;;;;;;;;;;;;6.28;100.00;98010.34;4955026;28;19915;-86
2023/10/29 15:17:44;;;;;;;;;;;;;;;6.23;100.00;97997.44;4952280;28;19980;-84
2023/10/29 15:20:10;;;;;;;;;;;;;;;6.16;100.00;98011.84;4937940;29;19922;-87
2023/10/29 15:22:36;;;;;;;;;;;;;;;6.25;100.00;97998.19;4954454;28;20080;-88
2023/10/29 15:25:04;;;;;;;;;;;;;;;6.26;100.00;97996.44;4938886;29;19954;-84
2023/10/29 15:27:30;;;;;;;;;;;;;;;6.20;100.00;97994.13;4938720;29;20005;-83
2023/10/29 15:29:55;;;;;;;;;;;;;;;6.16;100.00;97998.69;4955060;28;20382;-86
2023/10/29 15:32:20;;;;;;;;;;;;;;;6.33;100.00;97993.38;4936690;29;19918;-83
2023/10/29 15:34:45;;;;;;;;;;;;;;;6.19;100.00;97998.53;4934803;29;19926;-89
2023/10/29 15:37:16;;;;;;;;;;;;;;;6.25;100.00;98013.97;4938409;29;20286;-87
2023/10/29 15:39:43;;;;;;;;;;;;;;;6.25;100.00;98027.13;4938760;29;20020;-90
2023/10/29 15:42:09;;;;;;;;;;;;;;;6.19;100.00;98014.31;4936969;29;20381;-83
2023/10/29 15:44:34;;;;;;;;;;;;;;;6.09;100.00;98034.97;4952975;28;20057;-87
2023/10/29 15:46:59;;;;;;;;;;;;;;;6.21;100.00;98030.00;4936606;29;20375;-83
2023/10/29 15:49:24;;;;;;;;;;;;;;;6.22;100.00;98029.06;4953516;28;19922;-87
2023/10/29 15:51:50;;;;;;;;;;;;;;;6.22;100.00;98014.13;4954892;28;19922;-88
2023/10/29 15:54:16;;;;;;;;;;;;;;;6.40;100.00;98009.69;4954825;28;20001;-86
2023/10/29 15:56:41;;;;;;;;;;;;;;;6.17;100.00;98006.50;4953898;29;20042;-88
2023/10/29 15:59:09;;;;;;;;;;;;;;;6.12;100.00;97999.78;4950319;28;20392;-83
2023/10/29 16:01:35;;;;;;;;;;;;;;;6.08;100.00;98000.88;4937794;28;19918;-86
2023/10/29 16:04:10;;;;;;;;;;;;;;;6.27;100.00;97990.22;4935805;29;19926;-84
2023/10/29 16:06:35;;;;;;;;;;;;;;;6.11;100.00;97998.06;4952983;29;19982;-85
2023/10/29 16:09:01;;;;;;;;;;;;;;;6.04;100.00;98002.81;4937790;29;20009;-91
2023/10/29 16:11:26;;;;;;;;;;;;;;;6.14;100.00;98017.19;4937801;29;19918;-83
2023/10/29 16:13:52;;;;;;;;;;;;;;;6.06;100.00;98029.88;4954764;28;19919;-83
2023/10/29 16:16:17;;;;;;;;;;;;;;;6.15;100.00;98034.66;4955177;28;20350;-83
2023/10/29 16:18:43;;;;;;;;;;;;;;;6.24;100.00;98043.84;4931500;29;19922;-84
2023/10/29 16:21:09;;;;;;;;;;;;;;;6.24;100.00;98049.13;4955128;29;19930;-84
2023/10/29 16:23:34;;;;;;;;;;;;;;;6.12;100.00;98070.78;4932999;29;19920;-86
2023/10/29 16:25:59;;;;;;;;;;;;;;;6.04;100.00;98067.72;4936686;29;20439;-83
2023/10/29 16:28:24;;;;;;;;;;;;;;;6.06;100.00;98077.19;4954828;28;20381;-82
2023/10/29 16:30:50;;;;;;;;;;;;;;;6.21;100.00;98054.53;4936931;28;20417;-83
2023/10/29 16:33:15;;;;;;;;;;;;;;;6.15;100.00;98073.25;4953632;28;19961;-85
2023/10/29 16:35:40;;;;;;;;;;;;;;;6.13;100.00;98064.59;4936466;29;19929;-84
2023/10/29 16:38:06;;;;;;;;;;;;;;;6.07;100.00;98062.28;4954479;29;19929;-82
2023/10/29 16:40:31;;;;;;;;;;;;;;;6.13;100.00;98078.59;4954597;28;19930;-86
2023/10/29 16:42:56;;;;;;;;;;;;;;;6.06;100.00;98082.47;4937055;29;19919;-83
2023/10/29 16:45:22;;;;;;;;;;;;;;;6.07;100.00;98094.69;4936165;29;19930;-82
2023/10/29 16:47:47;;;;;;;;;;;;;;;6.10;100.00;98084.00;4935836;29;19919;-85
2023/10/29 16:50:12;;;;;;;;;;;;;;;6.06;100.00;98092.13;4954508;28;19922;-83
2023/10/29 16:52:41;;;;;;;;;;;;;;;6.03;100.00;98098.41;4935126;28;19927;-85
2023/10/29 16:55:06;;;;;;;;;;;;;;;6.09;100.00;98107.75;4937341;29;19926;-86
2023/10/29 16:57:31;;;;;;;;;;;;;;;6.05;100.00;98108.81;4936766;29;19922;-84
2023/10/29 16:59:56;;;;;;;;;;;;;;;6.02;100.00;98114.28;4952148;28;19922;-85
2023/10/29 17:02:22;;;;;;;;;;;;;;;5.88;100.00;98110.50;4953267;29;19926;-83
2023/10/29 17:04:48;;;;;;;;;;;;;;;5.86;100.00;98107.13;4954293;28;19926;-84
2023/10/29 17:07:14;;;;;;;;;;;;;;;5.91;100.00;98105.09;4953612;28;20048;-84
2023/10/29 17:09:39;;;;;;;;;;;;;;;6.03;100.00;98102.81;4936737;29;20471;-83
2023/10/29 17:12:05;;;;;;;;;;;;;;;6.01;100.00;98116.03;4953491;28;19923;-83
2023/10/29 17:14:30;;;;;;;;;;;;;;;6.09;100.00;98116.47;4951544;28;19930;-88
2023/10/29 17:16:56;;;;;;;;;;;;;;;6.13;100.00;98125.09;4934984;29;19970;-87
2023/10/29 17:19:21;;;;;;;;;;;;;;;6.10;100.00;98141.03;4953469;28;22029;-89
2023/10/29 17:21:46;;;;;;;;;;;;;;;5.83;100.00;98154.59;4952445;28;19922;-87
2023/10/29 17:24:11;;;;;;;;;;;;;;;6.08;100.00;98148.13;4952672;28;19926;-84
2023/10/29 17:26:37;;;;;;;;;;;;;;;6.02;100.00;98158.97;4952619;28;20021;-89
2023/10/29 17:29:02;;;;;;;;;;;;;;;5.84;100.00;98156.31;4953334;28;19919;-83
2023/10/29 17:31:27;;;;;;;;;;;;;;;5.98;100.00;98137.22;4954356;28;19926;-83
2023/10/29 17:33:52;;;;;;;;;;;;;;;5.92;100.00;98154.13;4951241;28;20009;-86
2023/10/29 17:36:18;;;;;;;;;;;;;;;5.89;100.00;98148.16;4952853;28;20054;-87
2023/10/29 17:38:46;;;;;;;;;;;;;;;6.02;100.00;98153.72;4935077;28;19928;-83
2023/10/29 17:41:13;;;;;;;;;;;;;;;6.00;100.00;98178.28;4953398;28;20362;-90
2023/10/29 17:43:38;;;;;;;;;;;;;;;6.00;100.00;98170.41;4952745;28;19926;-86
2023/10/29 17:46:04;;;;;;;;;;;;;;;5.98;100.00;98169.63;4952980;28;20358;-88
2023/10/29 17:48:29;;;;;;;;;;;;;;;5.89;100.00;98170.06;4935653;29;19926;-84
2023/10/29 17:50:56;;;;;;;;;;;;;;;5.83;100.00;98176.44;4954359;28;19922;-84
2023/10/29 17:53:21;;;;;;;;;;;;;;;5.97;100.00;98165.31;4952994;28;19923;-90
2023/10/29 17:55:53;;;;;;;;;;;;;;;5.89;100.00;98171.81;4954193;28;19998;-86
2023/10/29 17:58:19;;;;;;;;;;;;;;;5.91;100.00;98175.25;4953828;28;19929;-89
2023/10/29 18:00:45;;;;;;;;;;;;;;;5.91;100.00;98183.13;4951267;28;19930;-87
2023/10/29 18:03:10;;;;;;;;;;;;;;;6.08;100.00;98180.53;4935147;29;19984;-83
2023/10/29 18:05:35;;;;;;;;;;;;;;;5.79;100.00;98198.56;4935142;29;19937;-86
2023/10/29 18:08:00;;;;;;;;;;;;;;;5.83;100.00;98197.47;4951665;28;19922;-86
2023/10/29 18:10:26;;;;;;;;;;;;;;;5.83;100.00;98208.00;4920510;29;20328;-82
2023/10/29 18:12:51;;;;;;;;;;;;;;;5.92;100.00;98205.84;4953464;29;19977;-82
2023/10/29 18:15:16;;;;;;;;;;;;;;;5.93;100.00;98207.56;4951231;28;20423;-83
2023/10/29 18:17:41;;;;;;;;;;;;;;;6.00;100.00;98212.47;4934820;29;19914;-82
2023/10/29 18:20:08;;;;;;;;;;;;;;;6.04;100.00;98213.16;4953781;28;20390;-87
2023/10/29 18:22:34;;;;;;;;;;;;;;;6.01;100.00;98215.94;4952679;28;19965;-81
2023/10/29 18:25:02;;;;;;;;;;;;;;;5.91;100.00;98226.03;4952289;28;20021;-90
2023/10/29 18:27:27;;;;;;;;;;;;;;;5.96;100.00;98228.44;4931304;29;19930;-87
2023/10/29 18:29:52;;;;;;;;;;;;;;;5.87;100.00;98229.75;4931175;29;20290;-83
2023/10/29 18:32:17;;;;;;;;;;;;;;;5.93;100.00;98232.06;4932945;29;19926;-87
2023/10/29 18:34:43;;;;;;;;;;;;;;;6.04;100.00;98236.84;4935937;28;20123;-84
2023/10/29 18:37:08;;;;;;;;;;;;;;;5.97;100.00;98244.19;4939524;29;19922;-81
2023/10/29 18:39:33;;;;;;;;;;;;;;;6.02;100.00;98249.22;4939288;29;19918;-84
2023/10/29 18:42:00;;;;;;;;;;;;;;;6.04;100.00;98242.09;4956033;28;19927;-81
2023/10/29 18:44:29;;;;;;;;;;;;;;;5.93;100.00;98234.69;4940059;29;19925;-86
2023/10/29 18:46:55;;;;;;;;;;;;;;;5.75;100.00;98225.09;4954638;28;19929;-85
2023/10/29 18:49:20;;;;;;;;;;;;;;;5.77;100.00;98223.22;4956597;29;20024;-89
2023/10/29 18:51:46;;;;;;;;;;;;;;;5.90;100.00;98221.69;4938611;29;19922;-82
2023/10/29 18:54:11;;;;;;;;;;;;;;;5.82;100.00;98213.34;4938625;29;20358;-85
2023/10/29 18:56:36;;;;;;;;;;;;;;;5.90;100.00;98212.97;4940048;29;20353;-84
2023/10/29 18:59:02;;;;;;;;;;;;;;;5.77;100.00;98210.06;4954486;28;19942;-86
2023/10/29 19:01:27;;;;;;;;;;;;;;;5.78;100.00;98210.00;4954945;28;19919;-85
2023/10/29 19:03:52;;;;;;;;;;;;;;;5.78;100.00;98219.69;4952062;28;19930;-84
2023/10/29 19:06:17;;;;;;;;;;;;;;;5.81;100.00;98230.88;4954370;28;19928;-87
2023/10/29 19:08:43;;;;;;;;;;;;;;;5.79;100.00;98238.00;4937902;29;19952;-84
2023/10/29 19:11:10;;;;;;;;;;;;;;;5.77;100.00;98241.63;4936130;29;19950;-92
2023/10/29 19:13:35;;;;;;;;;;;;;;;5.80;100.00;98249.38;4939237;28;20386;-83
2023/10/29 19:16:04;;;;;;;;;;;;;;;5.77;100.00;98246.88;4936594;28;19981;-83
2023/10/29 19:18:29;;;;;;;;;;;;;;;5.94;100.00;98241.66;4950947;29;20366;-89
2023/10/29 19:20:54;;;;;;;;;;;;;;;5.78;100.00;98252.06;4938073;29;19929;-83
2023/10/29 19:23:20;;;;;;;;;;;;;;;5.77;100.00;98262.66;4954258;28;20005;-83
2023/10/29 19:25:45;;;;;;;;;;;;;;;5.74;100.00;98260.16;4938245;29;20381;-82
2023/10/29 19:28:10;;;;;;;;;;;;;;;5.77;100.00;98252.97;4954798;28;19930;-82
2023/10/29 19:30:35;;;;;;;;;;;;;;;5.80;100.00;98257.25;4938733;29;20028;-83
2023/10/29 19:33:01;;;;;;;;;;;;;;;5.72;100.00;98267.28;4953378;29;19928;-83
2023/10/29 19:35:29;;;;;;;;;;;;;;;5.72;100.00;98267.28;4937587;29;19933;-83
2023/10/29 19:37:55;;;;;;;;;;;;;;;5.73;100.00;98269.84;4937839;29;20285;-82
2023/10/29 19:40:20;;;;;;;;;;;;;;;5.77;100.00;98274.00;4934181;29;19923;-83
2023/10/29 19:42:45;;;;;;;;;;;;;;;5.86;100.00;98271.88;4954877;28;20034;-87
2023/10/29 19:45:11;;;;;;;;;;;;;;;5.74;100.00;98273.31;4937681;29;19929;-82
2023/10/29 19:47:36;;;;;;;;;;;;;;;5.78;100.00;98277.50;4951902;28;20304;-85
2023/10/29 19:50:02;;;;;;;;;;;;;;;5.69;100.00;98270.88;4954879;28;19969;-90
2023/10/29 19:52:27;;;;;;;;;;;;;;;5.63;100.00;98273.81;4938392;28;19957;-89
2023/10/29 19:54:55;;;;;;;;;;;;;;;5.79;100.00;98276.56;4955526;29;19919;-86
2023/10/29 19:57:21;;;;;;;;;;;;;;;5.75;100.00;98256.63;4954953;28;20398;-86
2023/10/29 19:59:48;;;;;;;;;;;;;;;5.83;100.00;98267.63;4954861;28;19922;-83
2023/10/29 20:02:13;;;;;;;;;;;;;;;5.87;100.00;98277.06;4953699;29;19929;-83
2023/10/29 20:04:38;;;;;;;;;;;;;;;5.77;100.00;98265.28;4955425;28;19923;-82
2023/10/29 20:07:04;;;;;;;;;;;;;;;5.63;100.00;98266.78;4954668;29;20378;-83
2023/10/29 20:09:29;;;;;;;;;;;;;;;5.64;100.00;98267.63;4937588;29;19933;-82
2023/10/29 20:11:54;;;;;;;;;;;;;;;5.70;100.00;98264.72;4954686;28;19923;-83
2023/10/29 20:14:20;;;;;;;;;;;;;;;5.77;100.00;98275.78;4953835;29;19922;-84
2023/10/29 20:16:45;;;;;;;;;;;;;;;5.71;100.00;98265.56;4954258;29;19972;-86
2023/10/29 20:19:10;;;;;;;;;;;;;;;5.73;100.00;98269.00;4953285;29;19926;-83
2023/10/29 20:21:36;;;;;;;;;;;;;;;5.63;100.00;98273.81;4953026;28;19934;-83
2023/10/29 20:24:01;;;;;;;;;;;;;;;5.68;100.00;98271.84;4920037;29;19986;-83
2023/10/29 20:26:26;;;;;;;;;;;;;;;5.68;100.00;98265.69;4954231;28;20025;-83
2023/10/29 20:28:52;;;;;;;;;;;;;;;5.65;100.00;98266.72;4953829;28;19922;-82
2023/10/29 20:31:17;;;;;;;;;;;;;;;5.62;100.00;98278.22;4954845;28;19977;-82
2023/10/29 20:33:44;;;;;;;;;;;;;;;5.72;100.00;98283.88;4953058;29;19926;-87
2023/10/29 20:36:10;;;;;;;;;;;;;;;5.59;100.00;98282.78;4954337;28;20004;-87
2023/10/29 20:38:35;;;;;;;;;;;;;;;5.70;100.00;98277.88;4954509;29;19949;-84
2023/10/29 20:41:08;;;;;;;;;;;;;;;5.63;100.00;98285.19;4951803;28;19965;-83
2023/10/29 20:43:33;;;;;;;;;;;;;;;5.71;100.00;98278.69;4953048;29;19922;-83
2023/10/29 20:45:58;;;;;;;;;;;;;;;5.61;100.00;98280.91;4952024;28;20829;-84
2023/10/29 20:48:24;;;;;;;;;;;;;;;5.66;100.00;98291.22;4952443;29;19923;-83
2023/10/29 20:50:50;;;;;;;;;;;;;;;5.67;100.00;98292.94;4953731;28;20420;-87
2023/10/29 20:53:16;;;;;;;;;;;;;;;5.77;100.00;98294.19;4935310;29;19922;-83
2023/10/29 20:55:41;;;;;;;;;;;;;;;5.77;100.00;98291.56;4952917;28;19922;-83
2023/10/29 20:58:07;;;;;;;;;;;;;;;5.71;100.00;98297.09;4952726;28;20282;-84
2023/10/29 21:00:32;;;;;;;;;;;;;;;5.80;100.00;98301.94;4952523;29;19922;-85
2023/10/29 21:03:07;;;;;;;;;;;;;;;5.72;100.00;98294.41;4952302;29;20020;-88
2023/10/29 21:05:42;;;;;;;;;;;;;;;5.62;100.00;98303.66;4933831;29;19930;-90
2023/10/29 21:08:08;;;;;;;;;;;;;;;5.78;100.00;98299.38;4950426;29;19925;-85
2023/10/29 21:10:33;;;;;;;;;;;;;;;5.83;100.00;98296.53;4934509;29;19922;-85
2023/10/29 21:13:00;;;;;;;;;;;;;;;5.79;100.00;98298.47;4936178;28;19922;-85
2023/10/29 21:15:25;;;;;;;;;;;;;;;5.88;100.00;98307.69;4933556;29;19933;-85
2023/10/29 21:17:51;;;;;;;;;;;;;;;5.90;100.00;98302.34;4933422;29;19926;-81
2023/10/29 21:20:16;;;;;;;;;;;;;;;5.87;100.00;98305.13;4952495;28;19989;-84
2023/10/29 21:22:41;;;;;;;;;;;;;;;5.98;100.00;98310.75;4952308;29;20460;-82
2023/10/29 21:25:06;;;;;;;;;;;;;;;5.87;100.00;98315.63;4950776;28;19922;-85
2023/10/29 21:27:32;;;;;;;;;;;;;;;5.76;100.00;98310.88;4934422;29;19968;-81
2023/10/29 21:29:57;;;;;;;;;;;;;;;5.80;100.00;98312.44;4931684;29;19926;-84
2023/10/29 21:32:23;;;;;;;;;;;;;;;5.66;100.00;98309.59;4933356;29;19978;-82
2023/10/29 21:34:48;;;;;;;;;;;;;;;5.75;100.00;98303.94;4933935;29;19923;-82
2023/10/29 21:37:13;;;;;;;;;;;;;;;5.79;100.00;98305.47;4934738;29;19918;-87
2023/10/29 21:39:39;;;;;;;;;;;;;;;5.70;100.00;98317.28;4933391;29;19919;-83
2023/10/29 21:42:04;;;;;;;;;;;;;;;5.70;100.00;98324.31;4935906;28;20358;-87
2023/10/29 21:44:29;;;;;;;;;;;;;;;5.71;100.00;98331.25;4934850;29;19922;-83
2023/10/29 21:46:54;;;;;;;;;;;;;;;5.59;100.00;98338.78;4933683;28;19959;-84
2023/10/29 21:49:20;;;;;;;;;;;;;;;5.56;100.00;98341.56;4932763;29;19922;-86
2023/10/29 21:51:45;;;;;;;;;;;;;;;5.62;100.00;98335.19;4934864;29;20378;-85
2023/10/29 21:54:10;;;;;;;;;;;;;;;5.68;100.00;98339.28;4935527;28;19923;-85
2023/10/29 21:56:35;;;;;;;;;;;;;;;5.58;100.00;98334.44;4934415;29;19926;-85
2023/10/29 21:59:01;;;;;;;;;;;;;;;5.78;100.00;98330.06;4933782;28;19929;-84
2023/10/29 22:01:26;;;;;;;;;;;;;;;6.04;100.00;98347.28;4935793;29;19923;-83
2023/10/29 22:03:51;;;;;;;;;;;;;;;5.79;100.00;98342.28;4932717;29;19927;-86
2023/10/29 22:06:16;;;;;;;;;;;;;;;5.64;100.00;98349.94;4934756;28;20025;-85
2023/10/29 22:08:42;;;;;;;;;;;;;;;5.62;100.00;98346.53;4952924;29;19969;-86
2023/10/29 22:11:08;;;;;;;;;;;;;;;5.76;100.00;98347.66;4950460;28;20017;-83
2023/10/29 22:13:36;;;;;;;;;;;;;;;5.69;100.00;98346.25;4954573;29;19958;-85
2023/10/29 22:16:06;;;;;;;;;;;;;;;5.60;100.00;98364.16;4954291;28;19919;-82
2023/10/29 22:18:32;;;;;;;;;;;;;;;5.55;100.00;98365.28;4938103;29;19930;-81
2023/10/29 22:21:05;;;;;;;;;;;;;;;5.58;100.00;98376.50;4938284;29;19922;-88
2023/10/29 22:23:30;;;;;;;;;;;;;;;5.44;100.00;98374.50;4955770;29;19922;-86
2023/10/29 22:25:56;;;;;;;;;;;;;;;5.58;100.00;98354.63;4939090;29;19929;-89
2023/10/29 22:28:21;;;;;;;;;;;;;;;5.55;100.00;98378.41;4953624;28;19922;-87
2023/10/29 22:30:47;;;;;;;;;;;;;;;5.64;100.00;98356.97;4938281;29;19993;-85
2023/10/29 22:33:12;;;;;;;;;;;;;;;5.56;100.00;98370.47;4953969;28;20405;-83
2023/10/29 22:35:37;;;;;;;;;;;;;;;5.40;100.00;98385.22;4937685;29;19929;-85
2023/10/29 22:38:04;;;;;;;;;;;;;;;5.51;100.00;98368.97;4952171;28;19925;-87
2023/10/29 22:40:29;;;;;;;;;;;;;;;5.49;100.00;98368.16;4937400;29;20028;-88
2023/10/29 22:42:55;;;;;;;;;;;;;;;5.50;100.00;98364.63;4937959;29;20413;-86
2023/10/29 22:45:20;;;;;;;;;;;;;;;5.49;100.00;98370.78;4937827;28;19929;-87
2023/10/29 22:47:47;;;;;;;;;;;;;;;5.58;100.00;98371.22;4952536;28;20276;-87
2023/10/29 22:50:12;;;;;;;;;;;;;;;5.57;100.00;98366.91;4954029;28;20722;-87
2023/10/29 22:52:39;;;;;;;;;;;;;;;5.53;100.00;98367.97;4938699;29;19926;-88
2023/10/29 22:55:04;;;;;;;;;;;;;;;5.53;100.00;98375.84;4955673;29;19923;-85
2023/10/29 22:57:30;;;;;;;;;;;;;;;5.56;100.00;98375.72;4938572;29;20453;-87
2023/10/29 22:59:55;;;;;;;;;;;;;;;5.66;100.00;98378.78;4938308;29;19918;-87
2023/10/29 23:02:21;;;;;;;;;;;;;;;5.58;100.00;98379.13;4953562;29;20770;-87
2023/10/29 23:04:46;;;;;;;;;;;;;;;5.64;100.00;98381.47;4935968;29;19934;-87
2023/10/29 23:07:11;;;;;;;;;;;;;;;5.64;100.00;98402.50;4936843;28;19939;-87
2023/10/29 23:09:36;;;;;;;;;;;;;;;5.57;100.00;98398.44;4937905;29;20020;-87
2023/10/29 23:12:02;;;;;;;;;;;;;;;5.65;100.00;98392.84;4953216;29;20334;-89
2023/10/29 23:14:30;;;;;;;;;;;;;;;5.55;100.00;98397.69;4936410;28;19937;-87
2023/10/29 23:16:55;;;;;;;;;;;;;;;5.58;100.00;98405.41;4936145;29;19918;-87
2023/10/29 23:19:20;;;;;;;;;;;;;;;5.44;100.00;98406.03;4936015;28;19918;-87
2023/10/29 23:21:46;;;;;;;;;;;;;;;5.41;100.00;98406.16;4937536;29;19926;-87
2023/10/29 23:24:11;;;;;;;;;;;;;;;5.48;100.00;98417.25;4953931;28;19922;-84
2023/10/29 23:26:36;;;;;;;;;;;;;;;5.47;100.00;98426.03;4938070;29;20345;-87
2023/10/29 23:29:01;;;;;;;;;;;;;;;5.55;100.00;98423.94;4954718;28;19925;-84
2023/10/29 23:31:27;;;;;;;;;;;;;;;5.64;100.00;98426.16;4935771;29;20381;-84
2023/10/29 23:33:54;;;;;;;;;;;;;;;5.69;100.00;98417.22;4953554;28;19937;-88
2023/10/29 23:36:19;;;;;;;;;;;;;;;5.62;100.00;98409.59;4955182;29;19969;-93
2023/10/29 23:38:44;;;;;;;;;;;;;;;5.57;100.00;98401.09;4934440;29;19918;-86
2023/10/29 23:41:10;;;;;;;;;;;;;;;5.57;100.00;98402.88;4933937;29;19932;-89
2023/10/29 23:43:35;;;;;;;;;;;;;;;5.46;100.00;98387.56;4937133;29;19926;-83
2023/10/29 23:46:00;;;;;;;;;;;;;;;5.59;100.00;98372.94;4937671;29;19929;-83
2023/10/29 23:48:25;;;;;;;;;;;;;;;5.53;100.00;98383.72;4951830;28;20440;-84
2023/10/29 23:50:51;;;;;;;;;;;;;;;5.60;100.00;98379.94;4936802;29;20073;-86
2023/10/29 23:53:16;;;;;;;;;;;;;;;5.62;100.00;98375.44;4954772;29;19926;-85
2023/10/29 23:55:42;;;;;;;;;;;;;;;5.56;100.00;98373.09;4934282;29;19921;-88
2023/10/29 23:58:08;;;;;;;;;;;;;;;5.74;100.00;98375.81;4953076;28;19923;-88
